Time;durP1;ratioP1;P1;durP2;ratioP2;P2;SDS_P1;SDS_P2;PMS_P1;PMS_P2;Temp;Humidity;BMP_temperature;BMP_pressure;BME280_temperature;BME280_humidity;BME280_pressure;Samples;Min_cycle;Max_cycle;Signal;HPM_P1;HPM_P2
2023/10/28 00:00:07;;;;;;;;;;;;;;;16.27;91.93;98455.31;344687;28;2011;-74
2023/10/28 00:00:17;;;;;;;;;;;;;;;16.26;91.78;98451.81;344840;28;956;-74
2023/10/28 00:00:29;;;;;;;;;;;;;;;16.26;91.80;98458.91;339562;29;1218;-74
2023/10/28 00:00:39;;;;;;;;;;;;;;;16.23;91.77;98462.63;339424;29;1357;-74
2023/10/28 00:00:50;;;;;;;;;;;;;;;16.20;91.89;98457.63;337995;29;1209;-74
2023/10/28 00:01:01;;;;;;;;;;;;;;;16.15;91.90;98465.06;336967;29;826;-74
2023/10/28 00:01:12;;;;;;;;;;;;;;;16.14;92.17;98460.75;336877;29;1846;-74
2023/10/28 00:01:23;;;;;;;;;;;;;;;16.11;92.26;98463.63;332407;29;2176;-74
2023/10/28 00:01:33;;;;;;;;;;;;;;;16.10;92.44;98459.31;333075;29;2123;-74
2023/10/28 00:01:43;;;;;;;;;;;;;;;16.09;92.47;98457.66;335683;29;1262;-74
2023/10/28 00:01:53;;;;;;;;;;;;;;;16.07;92.56;98464.84;334056;29;2265;-74
2023/10/28 00:02:05;;;;;;;;;;;;;;;16.05;92.71;98461.50;328818;29;2273;-74
2023/10/28 00:02:15;;;;;;;;;;;;;;;16.04;92.79;98465.09;329446;30;823;-74
2023/10/28 00:02:26;;;;;;;;;;;;;;;16.02;92.82;98459.16;332452;29;2632;-75
2023/10/28 00:02:36;;;;;;;;;;;;;;;16.02;92.84;98460.94;332441;29;1857;-74
2023/10/28 00:02:47;;;;;;;;;;;;;;;16.00;92.90;98469.00;328217;30;1474;-74
2023/10/28 00:02:57;;;;;;;;;;;;;;;16.00;93.20;98469.00;329742;29;1446;-74
2023/10/28 00:03:07;;;;;;;;;;;;;;;16.00;92.94;98463.72;328838;29;1965;-73
2023/10/28 00:03:17;;;;;;;;;;;;;;;16.00;93.12;98465.50;327709;29;2787;-74
2023/10/28 00:03:28;;;;;;;;;;;;;;;16.00;93.14;98463.72;326988;30;1258;-74
2023/10/28 00:03:38;;;;;;;;;;;;;;;16.01;93.26;98473.31;326250;29;5203;-73
2023/10/28 00:03:49;;;;;;;;;;;;;;;16.02;93.23;98471.50;326862;29;5795;-74
2023/10/28 00:04:02;;;;;;;;;;;;;;;16.02;93.33;98471.50;330460;29;5606;-74
2023/10/28 00:04:12;;;;;;;;;;;;;;;16.03;93.13;98470.53;329200;29;3492;-74
2023/10/28 00:04:24;;;;;;;;;;;;;;;16.03;93.09;98463.44;326939;30;3144;-74
2023/10/28 00:04:34;;;;;;;;;;;;;;;16.05;93.20;98472.06;322648;30;3182;-74
2023/10/28 00:04:44;;;;;;;;;;;;;;;16.07;93.11;98480.69;321067;30;1316;-74
2023/10/28 00:04:54;;;;;;;;;;;;;;;16.07;93.06;98475.41;322732;30;2400;-74
2023/10/28 00:05:05;;;;;;;;;;;;;;;16.07;93.06;98475.41;322744;30;2312;-74
2023/10/28 00:05:15;;;;;;;;;;;;;;;16.09;92.99;98483.22;323298;30;817;-74
2023/10/28 00:05:26;;;;;;;;;;;;;;;16.09;92.88;98465.56;322990;30;2420;-74
2023/10/28 00:05:36;;;;;;;;;;;;;;;16.10;93.01;98474.31;320589;30;3163;-74
2023/10/28 00:05:46;;;;;;;;;;;;;;;16.11;92.94;98479.47;319107;30;1214;-74
2023/10/28 00:05:57;;;;;;;;;;;;;;;16.12;93.01;98480.31;315285;31;3960;-73
2023/10/28 00:06:07;;;;;;;;;;;;;;;16.11;92.85;98476.84;314969;30;4142;-74
2023/10/28 00:06:17;;;;;;;;;;;;;;;16.12;92.84;98475.88;314741;30;4285;-73
2023/10/28 00:06:28;;;;;;;;;;;;;;;16.14;92.75;98475.75;318750;31;1261;-73
2023/10/28 00:06:39;;;;;;;;;;;;;;;16.14;92.94;98484.50;318685;30;4153;-74
2023/10/28 00:06:49;;;;;;;;;;;;;;;16.15;92.91;98480.06;316946;31;4257;-74
2023/10/28 00:07:00;;;;;;;;;;;;;;;16.15;92.87;98483.56;315117;31;1354;-74
2023/10/28 00:07:10;;;;;;;;;;;;;;;16.15;92.84;98477.44;317014;31;3146;-74
2023/10/28 00:07:20;;;;;;;;;;;;;;;16.16;92.78;98485.22;315528;31;2986;-74
2023/10/28 00:07:31;;;;;;;;;;;;;;;16.16;92.84;98484.38;312961;31;1248;-74
2023/10/28 00:07:41;;;;;;;;;;;;;;;16.16;92.78;98485.22;314776;31;3679;-75
2023/10/28 00:07:51;;;;;;;;;;;;;;;16.16;92.97;98485.22;313718;31;4364;-73
2023/10/28 00:08:03;;;;;;;;;;;;;;;16.17;92.92;98483.44;314013;31;1926;-73
2023/10/28 00:08:14;;;;;;;;;;;;;;;16.17;92.77;98481.63;306239;32;1480;-73
2023/10/28 00:08:24;;;;;;;;;;;;;;;16.17;92.90;98492.19;303676;32;6909;-73
2023/10/28 00:08:34;;;;;;;;;;;;;;;16.16;92.90;98487.88;300437;32;7265;-73
2023/10/28 00:08:45;;;;;;;;;;;;;;;16.17;92.96;98492.19;296961;33;1392;-73
2023/10/28 00:08:55;;;;;;;;;;;;;;;16.17;92.90;98492.19;297498;33;6053;-73
2023/10/28 00:09:05;;;;;;;;;;;;;;;16.18;92.92;98485.94;295631;33;6031;-73
2023/10/28 00:09:15;;;;;;;;;;;;;;;16.18;92.85;98480.66;295207;33;921;-73
2023/10/28 00:09:26;;;;;;;;;;;;;;;16.18;92.92;98488.56;291278;33;4341;-73
2023/10/28 00:09:37;;;;;;;;;;;;;;;16.17;92.95;98489.53;291417;33;5502;-73
2023/10/28 00:09:47;;;;;;;;;;;;;;;16.14;92.79;98487.16;292208;33;1234;-73
2023/10/28 00:09:57;;;;;;;;;;;;;;;16.15;92.95;98478.28;286288;33;6227;-74
2023/10/28 00:10:09;;;;;;;;;;;;;;;16.13;92.98;98480.19;284356;34;6524;-73
2023/10/28 00:10:21;;;;;;;;;;;;;;;16.10;92.96;98485.72;281902;34;8605;-74
2023/10/28 00:10:35;;;;;;;;;;;;;;;16.08;93.08;98485.00;284039;34;1615;-74
2023/10/28 00:10:47;;;;;;;;;;;;;;;16.07;92.98;98487.78;282856;35;834;-74
2023/10/28 00:11:00;;;;;;;;;;;;;;;16.02;93.18;98485.53;287334;34;1303;-74
2023/10/28 00:11:10;;;;;;;;;;;;;;;16.00;93.17;98483.97;282435;34;8431;-74
2023/10/28 00:11:21;;;;;;;;;;;;;;;15.98;93.44;98485.91;282883;34;8506;-74
2023/10/28 00:11:32;;;;;;;;;;;;;;;15.97;93.30;98479.78;285648;34;1282;-74
2023/10/28 00:13:25;;;;;;;;;;;;;;;15.85;94.20;98484.25;2492969;27;19936;-74
2023/10/28 00:13:35;;;;;;;;;;;;;;;15.84;94.03;98479.09;353197;28;1315;-74
2023/10/28 00:13:46;;;;;;;;;;;;;;;15.86;94.36;98479.81;351882;28;850;-74
2023/10/28 00:13:56;;;;;;;;;;;;;;;15.86;94.18;98477.19;350052;28;3534;-74
2023/10/28 00:14:06;;;;;;;;;;;;;;;15.87;93.96;98476.22;350335;28;808;-74
2023/10/28 00:14:19;;;;;;;;;;;;;;;15.89;94.04;98482.22;352280;28;815;-74
2023/10/28 00:14:29;;;;;;;;;;;;;;;15.88;94.11;98481.38;353335;28;929;-74
2023/10/28 00:14:40;;;;;;;;;;;;;;;15.88;94.08;98480.53;352048;28;1307;-74
2023/10/28 00:14:50;;;;;;;;;;;;;;;15.87;94.14;98479.69;350296;28;4177;-75
2023/10/28 00:15:01;;;;;;;;;;;;;;;15.89;94.02;98474.28;349292;28;1226;-74
2023/10/28 00:15:13;;;;;;;;;;;;;;;15.90;94.02;98478.59;350350;28;1274;-74
2023/10/28 00:15:24;;;;;;;;;;;;;;;15.92;94.00;98471.41;350360;28;1286;-75
2023/10/28 00:15:34;;;;;;;;;;;;;;;15.93;93.74;98478.34;350430;28;882;-75
2023/10/28 00:15:45;;;;;;;;;;;;;;;15.95;93.93;98481.72;350699;28;808;-74
2023/10/28 00:15:55;;;;;;;;;;;;;;;15.96;93.84;98478.13;348952;28;1212;-74
2023/10/28 00:16:05;;;;;;;;;;;;;;;15.98;93.98;98475.34;351803;28;1246;-74
2023/10/28 00:16:15;;;;;;;;;;;;;;;15.99;93.76;98479.66;353051;28;1335;-74
2023/10/28 00:16:26;;;;;;;;;;;;;;;16.00;93.82;98478.69;353150;28;1273;-74
2023/10/28 00:16:36;;;;;;;;;;;;;;;16.00;93.68;98474.25;350258;28;1359;-74
2023/10/28 00:16:49;;;;;;;;;;;;;;;16.01;93.57;98481.22;350441;28;1536;-74
2023/10/28 00:16:59;;;;;;;;;;;;;;;16.03;93.67;98476.63;347851;28;1298;-74
2023/10/28 00:17:09;;;;;;;;;;;;;;;16.04;93.65;98485.38;349025;28;741;-74
2023/10/28 00:17:19;;;;;;;;;;;;;;;16.05;93.42;98481.78;348899;28;983;-74
2023/10/28 00:17:29;;;;;;;;;;;;;;;16.06;93.60;98480.81;347413;28;1484;-74
2023/10/28 00:17:40;;;;;;;;;;;;;;;16.06;93.58;98479.00;347695;28;912;-74
2023/10/28 00:17:50;;;;;;;;;;;;;;;16.07;93.43;98483.34;349020;28;928;-74
2023/10/28 00:18:00;;;;;;;;;;;;;;;16.07;93.31;98485.97;347479;28;1235;-74
2023/10/28 00:18:11;;;;;;;;;;;;;;;16.08;93.42;98479.72;347659;28;848;-74
2023/10/28 00:18:21;;;;;;;;;;;;;;;16.09;93.34;98484.03;346702;28;1219;-74
2023/10/28 00:18:33;;;;;;;;;;;;;;;16.10;93.39;98484.88;347526;28;823;-74
2023/10/28 00:18:43;;;;;;;;;;;;;;;16.11;93.36;98486.56;347708;28;769;-74
2023/10/28 00:18:54;;;;;;;;;;;;;;;16.10;93.31;98480.44;348826;28;1331;-74
2023/10/28 00:19:07;;;;;;;;;;;;;;;16.11;93.36;98476.00;348827;28;1225;-74
2023/10/28 00:19:19;;;;;;;;;;;;;;;16.10;93.27;98483.09;348846;28;1458;-74
2023/10/28 00:19:30;;;;;;;;;;;;;;;16.11;93.21;98481.28;347660;28;1043;-74
2023/10/28 00:19:41;;;;;;;;;;;;;;;16.10;93.28;98480.44;347609;28;1236;-74
2023/10/28 00:19:52;;;;;;;;;;;;;;;16.10;93.11;98480.44;348580;28;1472;-74
2023/10/28 00:20:03;;;;;;;;;;;;;;;16.12;93.24;98477.69;348335;28;1290;-74
2023/10/28 00:20:17;;;;;;;;;;;;;;;16.12;93.20;98478.53;349049;28;1078;-74
2023/10/28 00:20:29;;;;;;;;;;;;;;;16.14;93.28;98478.41;347643;28;1037;-74
2023/10/28 00:20:41;;;;;;;;;;;;;;;16.14;93.08;98481.88;348960;28;863;-74
2023/10/28 00:20:51;;;;;;;;;;;;;;;16.14;93.07;98475.75;349819;28;1361;-74
2023/10/28 00:21:01;;;;;;;;;;;;;;;16.13;93.05;98480.19;348571;28;865;-74
2023/10/28 00:21:11;;;;;;;;;;;;;;;16.13;93.04;98485.47;347728;28;785;-74
2023/10/28 00:21:22;;;;;;;;;;;;;;;16.10;93.14;98480.44;346817;28;1246;-74
2023/10/28 00:21:32;;;;;;;;;;;;;;;16.10;93.12;98480.44;344134;28;1629;-73
2023/10/28 00:21:42;;;;;;;;;;;;;;;16.07;93.09;98475.41;342149;28;1120;-74
2023/10/28 00:21:52;;;;;;;;;;;;;;;16.02;93.42;98472.34;342686;28;1442;-74
2023/10/28 00:22:03;;;;;;;;;;;;;;;16.00;93.46;98479.53;344299;28;1214;-74
2023/10/28 00:22:13;;;;;;;;;;;;;;;15.99;93.70;98477.88;346417;28;1914;-74
2023/10/28 00:22:24;;;;;;;;;;;;;;;15.99;93.63;98474.38;346209;28;1264;-74
2023/10/28 00:22:34;;;;;;;;;;;;;;;15.98;93.66;98486.75;344674;28;3260;-74
2023/10/28 00:22:45;;;;;;;;;;;;;;;15.97;93.86;98474.50;344248;28;4863;-74
2023/10/28 00:22:55;;;;;;;;;;;;;;;15.99;93.84;98477.88;343085;28;5512;-74
2023/10/28 00:23:06;;;;;;;;;;;;;;;15.99;93.61;98477.88;342014;28;3407;-74
2023/10/28 00:23:17;;;;;;;;;;;;;;;16.01;93.65;98481.22;343136;28;1483;-74
2023/10/28 00:23:27;;;;;;;;;;;;;;;16.02;93.74;98477.63;344836;28;1364;-74
2023/10/28 00:23:37;;;;;;;;;;;;;;;16.04;93.67;98474.81;343266;28;1787;-74
2023/10/28 00:23:47;;;;;;;;;;;;;;;16.04;93.67;98478.31;342759;28;1784;-74
2023/10/28 00:23:58;;;;;;;;;;;;;;;16.04;93.55;98480.94;340633;29;1446;-74
2023/10/28 00:24:10;;;;;;;;;;;;;;;16.05;93.56;98479.97;336901;29;1842;-74
2023/10/28 00:24:21;;;;;;;;;;;;;;;16.06;93.57;98471.09;336695;29;1456;-74
2023/10/28 00:24:31;;;;;;;;;;;;;;;16.06;93.55;98472.91;336923;29;1412;-74
2023/10/28 00:24:41;;;;;;;;;;;;;;;16.06;93.49;98470.25;335221;29;1341;-74
2023/10/28 00:24:51;;;;;;;;;;;;;;;16.07;93.48;98480.69;333523;29;1359;-74
2023/10/28 00:25:02;;;;;;;;;;;;;;;16.08;93.51;98471.81;334608;29;1288;-74
2023/10/28 00:25:15;;;;;;;;;;;;;;;16.08;93.31;98469.16;335045;29;1203;-74
2023/10/28 00:25:27;;;;;;;;;;;;;;;16.08;93.45;98469.16;332012;29;815;-74
2023/10/28 00:25:37;;;;;;;;;;;;;;;16.10;93.36;98469.03;335643;29;2100;-74
2023/10/28 00:25:47;;;;;;;;;;;;;;;16.09;93.33;98470.84;336758;29;2435;-74
2023/10/28 00:26:04;;;;;;;;;;;;;;;16.09;93.58;98470.84;331759;29;1304;-74
2023/10/28 00:26:14;;;;;;;;;;;;;;;16.10;93.63;98469.88;327601;30;2252;-74
2023/10/28 00:26:24;;;;;;;;;;;;;;;16.08;93.56;98457.78;328420;30;1129;-74
2023/10/28 00:26:35;;;;;;;;;;;;;;;16.09;93.44;98468.22;329890;29;2093;-74
2023/10/28 00:26:47;;;;;;;;;;;;;;;16.09;93.52;98467.38;331855;29;1709;-74
2023/10/28 00:26:57;;;;;;;;;;;;;;;16.08;93.64;98474.44;332979;29;1135;-74
2023/10/28 00:27:08;;;;;;;;;;;;;;;16.08;93.68;98466.53;328002;30;1273;-74
2023/10/28 00:27:18;;;;;;;;;;;;;;;16.09;93.76;98473.50;324779;30;2223;-74
2023/10/28 00:27:30;;;;;;;;;;;;;;;16.09;93.62;98472.66;323393;30;1331;-74
2023/10/28 00:27:40;;;;;;;;;;;;;;;16.08;93.72;98474.44;324563;30;871;-74
2023/10/28 00:27:50;;;;;;;;;;;;;;;16.07;93.57;98470.13;322851;30;2685;-74
2023/10/28 00:28:01;;;;;;;;;;;;;;;16.08;93.75;98470.97;326034;30;3312;-74
2023/10/28 00:28:11;;;;;;;;;;;;;;;16.07;93.71;98478.06;329439;30;1309;-74
2023/10/28 00:28:21;;;;;;;;;;;;;;;16.08;93.64;98474.44;327090;30;3466;-74
2023/10/28 00:28:35;;;;;;;;;;;;;;;16.08;93.65;98482.38;325761;30;3089;-74
2023/10/28 00:28:45;;;;;;;;;;;;;;;16.08;93.85;98477.09;323143;30;2677;-74
2023/10/28 00:28:55;;;;;;;;;;;;;;;16.08;93.85;98481.53;324405;30;1376;-74
2023/10/28 00:29:06;;;;;;;;;;;;;;;16.08;93.84;98482.38;326212;30;2349;-74
2023/10/28 00:29:16;;;;;;;;;;;;;;;16.09;93.59;98477.94;328051;30;2348;-74
2023/10/28 00:29:26;;;;;;;;;;;;;;;16.08;93.61;98474.44;329286;30;1236;-75
2023/10/28 00:29:36;;;;;;;;;;;;;;;16.09;93.83;98488.47;327787;30;2937;-74
2023/10/28 00:29:48;;;;;;;;;;;;;;;16.09;93.77;98486.69;327715;30;3279;-74
2023/10/28 00:30:00;;;;;;;;;;;;;;;16.09;93.99;98489.31;325748;30;1396;-74
2023/10/28 00:30:10;;;;;;;;;;;;;;;16.09;93.95;98489.31;321051;30;1391;-74
2023/10/28 00:30:22;;;;;;;;;;;;;;;16.08;94.11;98482.38;319507;30;4403;-74
2023/10/28 00:30:33;;;;;;;;;;;;;;;16.09;94.02;98481.41;318201;30;4749;-74
2023/10/28 00:30:44;;;;;;;;;;;;;;;16.08;93.92;98485.00;317443;31;1410;-74
2023/10/28 00:30:54;;;;;;;;;;;;;;;16.09;94.10;98485.84;317452;31;810;-74
2023/10/28 00:31:04;;;;;;;;;;;;;;;16.10;94.08;98487.53;316809;31;3974;-74
2023/10/28 00:31:21;;;;;;;;;;;;;;;16.10;93.95;98484.88;316325;30;3034;-74
2023/10/28 00:31:31;;;;;;;;;;;;;;;16.10;94.15;98483.09;316332;31;2934;-74
2023/10/28 00:31:43;;;;;;;;;;;;;;;16.10;93.79;98479.59;313477;31;2526;-74
2023/10/28 00:31:54;;;;;;;;;;;;;;;16.10;94.04;98485.72;307745;31;5479;-74
2023/10/28 00:32:05;;;;;;;;;;;;;;;16.09;94.02;98488.47;309044;31;5542;-74
2023/10/28 00:32:15;;;;;;;;;;;;;;;16.09;94.07;98483.22;307811;31;6603;-74
2023/10/28 00:32:26;;;;;;;;;;;;;;;16.08;94.25;98481.53;311290;31;5988;-74
2023/10/28 00:32:37;;;;;;;;;;;;;;;16.08;94.24;98481.53;311729;31;5029;-74
2023/10/28 00:32:47;;;;;;;;;;;;;;;16.08;94.12;98487.66;309983;31;6706;-74
2023/10/28 00:33:00;;;;;;;;;;;;;;;16.07;94.15;98483.34;307726;32;2275;-74
2023/10/28 00:33:10;;;;;;;;;;;;;;;16.08;94.26;98482.38;306528;32;907;-74
2023/10/28 00:33:20;;;;;;;;;;;;;;;16.07;94.41;98485.13;304186;32;5808;-74
2023/10/28 00:33:31;;;;;;;;;;;;;;;16.06;94.07;98484.28;301476;32;4373;-74
2023/10/28 00:33:42;;;;;;;;;;;;;;;16.06;94.27;98484.28;302145;32;1546;-74
2023/10/28 00:33:52;;;;;;;;;;;;;;;16.06;94.11;98489.56;301687;32;4744;-74
2023/10/28 00:34:03;;;;;;;;;;;;;;;16.07;94.33;98485.97;302631;32;5899;-74
2023/10/28 00:34:13;;;;;;;;;;;;;;;16.07;94.08;98485.97;302269;32;985;-74
2023/10/28 00:34:23;;;;;;;;;;;;;;;16.07;94.04;98485.97;298711;32;7324;-74
2023/10/28 00:34:33;;;;;;;;;;;;;;;16.06;94.13;98484.28;299107;32;8266;-74
2023/10/28 00:34:44;;;;;;;;;;;;;;;16.05;94.05;98484.41;301157;32;1209;-74
2023/10/28 00:34:54;;;;;;;;;;;;;;;16.06;94.17;98486.94;303787;32;7872;-74
2023/10/28 00:35:05;;;;;;;;;;;;;;;16.05;93.98;98487.91;301651;32;10721;-73
2023/10/28 00:35:15;;;;;;;;;;;;;;;16.06;94.11;98479.00;296652;32;8806;-73
2023/10/28 00:35:26;;;;;;;;;;;;;;;16.04;93.96;98486.22;300724;32;1351;-73
2023/10/28 00:37:06;;;;;;;;;;;;;;;16.05;94.01;98482.63;2500094;27;19923;-74
2023/10/28 00:37:17;;;;;;;;;;;;;;;16.05;93.98;98482.63;353285;27;1247;-73
2023/10/28 00:37:27;;;;;;;;;;;;;;;16.04;93.86;98480.94;351905;28;1230;-74
2023/10/28 00:37:38;;;;;;;;;;;;;;;16.05;94.01;98482.63;350345;28;1431;-74
2023/10/28 00:37:48;;;;;;;;;;;;;;;16.06;93.80;98479.00;350504;28;882;-74
2023/10/28 00:37:58;;;;;;;;;;;;;;;16.06;93.71;98481.66;350635;28;1374;-74
2023/10/28 00:38:08;;;;;;;;;;;;;;;16.05;93.78;98482.63;350552;28;1017;-74
2023/10/28 00:38:19;;;;;;;;;;;;;;;16.06;93.83;98478.19;348964;28;1206;-74
2023/10/28 00:38:30;;;;;;;;;;;;;;;16.05;93.90;98482.63;347648;28;879;-74
2023/10/28 00:38:40;;;;;;;;;;;;;;;16.04;93.88;98478.31;347615;28;816;-74
2023/10/28 00:38:51;;;;;;;;;;;;;;;16.04;94.03;98475.66;348405;28;880;-74
2023/10/28 00:39:01;;;;;;;;;;;;;;;16.05;93.99;98481.78;350860;28;1593;-74
2023/10/28 00:39:11;;;;;;;;;;;;;;;16.04;93.92;98478.31;351743;28;803;-74
2023/10/28 00:39:21;;;;;;;;;;;;;;;16.05;93.78;98479.13;350352;28;807;-74
2023/10/28 00:39:32;;;;;;;;;;;;;;;16.04;94.04;98485.38;350307;28;1182;-74
2023/10/28 00:39:43;;;;;;;;;;;;;;;16.04;93.98;98480.94;351753;28;764;-74
2023/10/28 00:39:55;;;;;;;;;;;;;;;16.05;93.91;98479.13;351640;28;1352;-74
2023/10/28 00:40:06;;;;;;;;;;;;;;;16.05;93.83;98482.63;351902;28;889;-74
2023/10/28 00:40:17;;;;;;;;;;;;;;;16.05;94.01;98479.97;350469;28;1242;-74
2023/10/28 00:40:31;;;;;;;;;;;;;;;16.05;94.01;98482.63;347984;28;1260;-74
2023/10/28 00:40:41;;;;;;;;;;;;;;;16.06;93.87;98480.81;348954;28;1455;-74
2023/10/28 00:40:52;;;;;;;;;;;;;;;16.05;94.01;98482.63;348830;28;1195;-74
2023/10/28 00:41:02;;;;;;;;;;;;;;;16.05;94.16;98482.63;349787;28;3255;-74
2023/10/28 00:41:13;;;;;;;;;;;;;;;16.06;93.90;98479.00;345955;28;6487;-74
2023/10/28 00:41:23;;;;;;;;;;;;;;;16.05;93.79;98485.25;348034;28;3663;-74
2023/10/28 00:41:33;;;;;;;;;;;;;;;16.05;93.78;98482.63;347045;28;5634;-74
2023/10/28 00:41:44;;;;;;;;;;;;;;;16.06;93.88;98479.00;346392;28;6004;-74
2023/10/28 00:41:54;;;;;;;;;;;;;;;16.06;93.72;98483.47;347473;28;859;-74
2023/10/28 00:42:05;;;;;;;;;;;;;;;16.06;93.75;98489.56;348930;28;788;-74
2023/10/28 00:42:17;;;;;;;;;;;;;;;16.05;93.69;98482.63;347733;28;745;-74
2023/10/28 00:42:27;;;;;;;;;;;;;;;16.07;93.82;98490.41;348712;28;860;-74
2023/10/28 00:42:38;;;;;;;;;;;;;;;16.07;93.68;98491.25;347532;28;1200;-74
2023/10/28 00:42:48;;;;;;;;;;;;;;;16.09;93.88;98491.13;348371;28;1256;-74
2023/10/28 00:42:59;;;;;;;;;;;;;;;16.08;93.77;98482.38;347842;28;1197;-74
2023/10/28 00:43:10;;;;;;;;;;;;;;;16.09;93.81;98486.69;347477;28;1455;-74
2023/10/28 00:43:22;;;;;;;;;;;;;;;16.08;93.93;98482.38;343657;28;1780;-74
2023/10/28 00:43:32;;;;;;;;;;;;;;;16.09;93.71;98489.31;344324;28;1080;-74
2023/10/28 00:43:42;;;;;;;;;;;;;;;16.07;93.78;98485.13;344859;28;1073;-74
2023/10/28 00:43:53;;;;;;;;;;;;;;;16.06;93.78;98483.47;344698;28;817;-74
2023/10/28 00:44:03;;;;;;;;;;;;;;;16.06;93.82;98489.56;343360;28;1599;-74
2023/10/28 00:44:14;;;;;;;;;;;;;;;16.04;93.67;98483.56;343667;28;867;-74
2023/10/28 00:44:24;;;;;;;;;;;;;;;16.03;93.91;98483.72;343633;28;828;-74
2023/10/28 00:44:35;;;;;;;;;;;;;;;16.01;93.90;98488.31;341469;28;1385;-74
2023/10/28 00:44:45;;;;;;;;;;;;;;;15.98;94.25;98481.47;339227;29;1692;-74
2023/10/28 00:44:55;;;;;;;;;;;;;;;15.97;94.11;98487.72;339728;29;1199;-74
2023/10/28 00:45:06;;;;;;;;;;;;;;;15.95;94.36;98487.00;338182;29;915;-74
2023/10/28 00:45:16;;;;;;;;;;;;;;;15.95;94.38;98485.19;338825;29;1410;-74
2023/10/28 00:45:27;;;;;;;;;;;;;;;15.96;94.36;98480.75;336759;29;1265;-74
2023/10/28 00:45:38;;;;;;;;;;;;;;;15.96;94.33;98488.66;336966;29;1585;-74
2023/10/28 00:45:48;;;;;;;;;;;;;;;15.97;94.29;98485.06;338912;28;1779;-74
2023/10/28 00:45:59;;;;;;;;;;;;;;;15.96;94.30;98486.03;338489;28;1895;-74
2023/10/28 00:46:09;;;;;;;;;;;;;;;15.96;94.42;98493.94;338223;29;1422;-74
2023/10/28 00:46:20;;;;;;;;;;;;;;;15.97;94.24;98487.72;340663;29;1322;-74
2023/10/28 00:46:30;;;;;;;;;;;;;;;15.97;94.28;98490.34;340072;29;1217;-74
2023/10/28 00:46:40;;;;;;;;;;;;;;;15.99;94.25;98482.31;339490;29;1276;-74
2023/10/28 00:46:50;;;;;;;;;;;;;;;15.98;94.30;98489.38;338271;29;1379;-74
2023/10/28 00:47:02;;;;;;;;;;;;;;;15.97;94.15;98490.34;337139;29;1520;-74
2023/10/28 00:47:12;;;;;;;;;;;;;;;15.98;94.39;98486.75;335252;29;1796;-74
2023/10/28 00:47:23;;;;;;;;;;;;;;;15.98;94.08;98485.91;335779;29;1111;-75
2023/10/28 00:47:34;;;;;;;;;;;;;;;15.98;94.08;98492.03;340709;28;1780;-75
2023/10/28 00:47:45;;;;;;;;;;;;;;;15.98;94.17;98492.03;337682;29;1903;-74
2023/10/28 00:47:57;;;;;;;;;;;;;;;16.00;94.20;98494.53;332497;29;2326;-74
2023/10/28 00:48:07;;;;;;;;;;;;;;;16.00;94.32;98492.75;335133;29;1377;-74
2023/10/28 00:48:17;;;;;;;;;;;;;;;16.00;94.21;98490.09;333827;29;1599;-74
2023/10/28 00:48:29;;;;;;;;;;;;;;;16.00;94.26;98484.81;334588;29;843;-74
2023/10/28 00:48:40;;;;;;;;;;;;;;;16.00;94.26;98490.09;337070;29;1266;-75
2023/10/28 00:48:52;;;;;;;;;;;;;;;16.01;94.39;98497.06;335601;29;1278;-75
2023/10/28 00:49:03;;;;;;;;;;;;;;;16.02;94.25;98496.09;337523;29;1631;-75
2023/10/28 00:49:14;;;;;;;;;;;;;;;16.00;94.31;98490.09;334292;29;2076;-74
2023/10/28 00:49:24;;;;;;;;;;;;;;;16.01;94.24;98499.69;330711;29;1244;-74
2023/10/28 00:49:35;;;;;;;;;;;;;;;16.01;94.05;98499.69;330082;29;2402;-74
2023/10/28 00:49:46;;;;;;;;;;;;;;;16.01;94.01;98502.34;330007;29;2469;-74
2023/10/28 00:49:58;;;;;;;;;;;;;;;16.01;93.99;98499.69;330039;29;2510;-74
2023/10/28 00:50:14;;;;;;;;;;;;;;;16.02;94.00;98501.38;324483;30;1260;-75
2023/10/28 00:50:25;;;;;;;;;;;;;;;16.04;93.94;98496.78;321658;30;3666;-74
2023/10/28 00:50:35;;;;;;;;;;;;;;;16.03;93.98;98502.22;324117;30;3437;-74
2023/10/28 00:50:45;;;;;;;;;;;;;;;16.02;93.85;98501.38;322256;30;5983;-74
2023/10/28 00:50:57;;;;;;;;;;;;;;;16.03;93.96;98504.84;320615;30;3233;-74
2023/10/28 00:51:08;;;;;;;;;;;;;;;16.04;93.90;98503.84;320575;30;896;-74
2023/10/28 00:51:19;;;;;;;;;;;;;;;16.04;94.04;98506.50;321128;30;2117;-74
2023/10/28 00:51:29;;;;;;;;;;;;;;;16.03;94.01;98500.38;322276;30;2745;-74
2023/10/28 00:51:41;;;;;;;;;;;;;;;16.03;93.84;98503.00;323362;30;1333;-75
2023/10/28 00:51:52;;;;;;;;;;;;;;;16.03;93.91;98500.38;317449;31;857;-74
2023/10/28 00:52:02;;;;;;;;;;;;;;;16.03;93.92;98505.66;315013;31;3176;-74
2023/10/28 00:52:13;;;;;;;;;;;;;;;16.03;93.65;98510.94;314955;31;3652;-76
2023/10/28 00:52:23;;;;;;;;;;;;;;;16.03;94.01;98513.56;315294;31;1296;-75
2023/10/28 00:52:34;;;;;;;;;;;;;;;16.02;93.96;98514.56;316008;31;3438;-75
2023/10/28 00:52:45;;;;;;;;;;;;;;;16.01;94.08;98510.25;316498;31;2477;-75
2023/10/28 00:52:55;;;;;;;;;;;;;;;16.02;94.17;98513.72;313487;31;2835;-75
2023/10/28 00:53:06;;;;;;;;;;;;;;;16.01;94.21;98512.06;311157;31;1400;-74
2023/10/28 00:53:17;;;;;;;;;;;;;;;16.00;94.14;98511.22;312941;31;3521;-74
2023/10/28 00:53:27;;;;;;;;;;;;;;;15.99;94.08;98514.81;312170;31;3434;-74
2023/10/28 00:53:37;;;;;;;;;;;;;;;16.00;94.20;98505.94;310849;31;554;-74
2023/10/28 00:53:48;;;;;;;;;;;;;;;16.00;94.15;98516.50;307959;31;3856;-74
2023/10/28 00:53:58;;;;;;;;;;;;;;;16.01;94.08;98517.34;306733;31;4417;-74
2023/10/28 00:54:08;;;;;;;;;;;;;;;16.01;94.14;98512.88;311067;31;1151;-74
2023/10/28 00:54:18;;;;;;;;;;;;;;;16.01;94.18;98515.53;310915;31;4513;-74
2023/10/28 00:54:28;;;;;;;;;;;;;;;16.01;94.01;98509.41;308329;31;4292;-74
2023/10/28 00:54:39;;;;;;;;;;;;;;;16.02;94.28;98501.38;307464;32;1227;-74
2023/10/28 00:54:51;;;;;;;;;;;;;;;16.01;94.17;98515.53;305771;32;4637;-74
2023/10/28 00:55:01;;;;;;;;;;;;;;;16.02;94.14;98516.38;305043;32;3188;-74
2023/10/28 00:55:11;;;;;;;;;;;;;;;16.02;94.11;98508.44;304786;32;3176;-74
2023/10/28 00:55:22;;;;;;;;;;;;;;;16.02;94.01;98513.72;305400;32;777;-75
2023/10/28 00:55:33;;;;;;;;;;;;;;;16.01;94.23;98507.59;299857;32;4597;-74
2023/10/28 00:55:43;;;;;;;;;;;;;;;16.01;94.28;98507.59;296501;32;5298;-74
2023/10/28 00:55:54;;;;;;;;;;;;;;;16.02;94.08;98511.94;298284;33;1374;-74
2023/10/28 00:56:04;;;;;;;;;;;;;;;16.03;94.23;98508.28;297777;32;5823;-74
2023/10/28 00:56:14;;;;;;;;;;;;;;;16.03;94.24;98505.66;297969;33;6623;-74
2023/10/28 00:56:25;;;;;;;;;;;;;;;16.03;94.16;98508.28;297955;33;806;-74
2023/10/28 00:56:35;;;;;;;;;;;;;;;16.02;94.20;98504.00;294225;33;6698;-74
2023/10/28 00:56:45;;;;;;;;;;;;;;;16.03;94.27;98507.50;293143;33;5606;-74
2023/10/28 00:56:56;;;;;;;;;;;;;;;16.02;94.15;98508.44;293683;33;2059;-74
2023/10/28 00:57:06;;;;;;;;;;;;;;;16.03;94.19;98507.50;290173;34;850;-74
2023/10/28 00:57:17;;;;;;;;;;;;;;;16.02;94.26;98504.00;289721;34;4699;-74
2023/10/28 00:57:27;;;;;;;;;;;;;;;16.02;94.25;98500.53;287670;34;5077;-74
2023/10/28 00:57:41;;;;;;;;;;;;;;;16.00;94.21;98510.38;287398;34;1083;-74
2023/10/28 00:57:51;;;;;;;;;;;;;;;15.95;94.27;98505.47;283523;34;1342;-74
2023/10/28 00:58:01;;;;;;;;;;;;;;;15.92;94.47;98503.06;282159;34;7426;-74
2023/10/28 00:58:12;;;;;;;;;;;;;;;15.89;94.66;98498.03;280569;34;8439;-74
2023/10/28 00:58:26;;;;;;;;;;;;;;;15.88;94.53;98496.38;282780;35;1369;-74
2023/10/28 00:58:37;;;;;;;;;;;;;;;15.85;94.84;98505.34;280163;35;890;-74
2023/10/28 00:58:47;;;;;;;;;;;;;;;15.82;95.12;98497.69;277275;35;10022;-74
2023/10/28 01:00:32;;;;;;;;;;;;;;;15.69;95.93;98501.41;2484610;27;19933;-73
2023/10/28 01:00:43;;;;;;;;;;;;;;;15.69;95.91;98491.72;354776;27;873;-73
2023/10/28 01:00:53;;;;;;;;;;;;;;;15.71;95.78;98500.34;353118;28;890;-73
2023/10/28 01:01:03;;;;;;;;;;;;;;;15.70;95.86;98495.19;349937;28;1423;-73
2023/10/28 01:01:14;;;;;;;;;;;;;;;15.71;95.69;98491.59;350309;28;1219;-73
2023/10/28 01:01:24;;;;;;;;;;;;;;;15.70;95.88;98497.81;350234;28;812;-73
2023/10/28 01:01:35;;;;;;;;;;;;;;;15.67;95.76;98488.34;348920;28;1083;-73
2023/10/28 01:01:45;;;;;;;;;;;;;;;15.68;95.95;98494.47;348837;28;1235;-73
2023/10/28 01:01:56;;;;;;;;;;;;;;;15.67;95.78;98492.78;348810;28;1230;-73
2023/10/28 01:02:06;;;;;;;;;;;;;;;15.68;95.85;98497.09;348826;28;1318;-73
2023/10/28 01:02:17;;;;;;;;;;;;;;;15.68;95.74;98494.47;349038;28;824;-73
2023/10/28 01:02:27;;;;;;;;;;;;;;;15.69;95.94;98496.16;351114;28;1148;-73